Aérodrome :
LOGIN :

S'inscrire | Disclaimer

   EN    FR    IT 

 










Légende :    VFR   VFR Marginal   IFR   IFR Intensif   IFR Très Intensif
Visi : 
Plafond : 
>= 8 km
>= 3000ft
5 à 8 km
1000 à 3000 ft
1500m à 5 km
500 à 1000 ft
800 à 1500m
200 à 500 ft
< 800m
< 200 ft
Symboles :   Orages  Brouillard  Fortes neiges  Fortes précipitations  Vent > 20 kt
SIGMETs :   Divers  Orages  Givrage  Turbulence  Onde Orograph.  Cendres Volcan.






- Altitude de l'aérodrome : 194 ft


EBCV - Chièvres

DERNIER METAR :
  • 231125Z AUTO 23011KT 9999 BKN011/// BKN090/// 16/13 Q1010 GRN

METARs EXPIRÉS :
  • 231120Z AUTO 23011KT 9999 SCT011/// BKN090/// 16/14 Q1010 GRN
  • 231055Z AUTO 21010KT 9999 FEW014/// 15/14 Q1010 BLU
  • 231045Z AUTO 21010KT 9999 SCT023/// BKN092/// 16/14 Q1010 WHT
  • 231025Z AUTO 21010KT 9999 BKN011/// 15/14 Q1010 GRN
  • 230955Z AUTO 22008KT 9999 OVC007/// 15/14 Q1011 GRN
  • 230945Z AUTO 21007KT 9000 OVC007/// 15/14 Q1010 GRN
  • 230925Z AUTO 23007KT 8000 OVC006/// 15/14 Q1010 YLO
  • 230855Z AUTO 21005KT 6000 OVC006/// 14/14 Q1010 YLO

TAF TAF EBCV
Valide du 23 à 10h jusqu'au 23 à 19h UTC


230900Z 2310/2319 VRB02KT 2500 BR BKN005
PROB30
TEMPO 2307/2309 600 FG SCT001 BKN003
BECMG 2309/2311 24008KT 9999 FEW008 SCT060
PROB30
TEMPO 2313/2316 4500 -SHRA SCT022TCU SCT100 BY EBWM



MET'MAP, la Météo Aéronautique d'un coup d'oeil ! - Copyright ORBIFLY Décembre 2007 - Disclaimer

ORBIFLY MET'MAP TEAM :

Programmation & Développement : Alexandra Zaïnal
Sur une idée originale de : Baudouin d'Aumeries
Assistance à la programmation : Marc-Olivier Méhu
Soutien technique & logistique : Manuel Goepfert

Contact : metmap@orbifly.com




SOURCES & CREDITS :

   NOAA